You are not logged in, Click here to log in
ICAO: VECC Country: 印度共和國西孟加拉邦首府加爾各答近郊德姆德姆的一座國際機場,距加爾各答市中心17公里,原名德姆德姆機
Latitude: 22.6547 Longitude: 88.4467
Total Arrivals: 3 Total Departures: 5
Latest Arrival: G3T13 (VTBS-VECC)Jason. Li Latest Departure: G8121 (VECC-VOHS)Jason. Li
Scenery:
METAR : VECC 151830Z 17006KT 3200 HZ FEW018 SCT100 29/27 Q1005 NOSIG

內塔吉·蘇巴斯·錢德拉·鮑斯國際機場CCU